Time;durP1;ratioP1;P1;durP2;ratioP2;P2;SDS_P1;SDS_P2;PMS_P1;PMS_P2;Temp;Humidity;BMP_temperature;BMP_pressure;BME280_temperature;BME280_humidity;BME280_pressure;Samples;Min_cycle;Max_cycle;Signal;HPM_P1;HPM_P2
2021/05/19 00:01:21;;;;;;;17.67;14.38;;;;;;;;;;5074645;28;20215;-70
2021/05/19 00:03:48;;;;;;;17.83;14.60;;;;;;;;;;5075117;28;20253;-71
2021/05/19 00:06:15;;;;;;;17.05;15.30;;;;;;;;;;5075584;28;20199;-71
2021/05/19 00:08:42;;;;;;;18.98;16.63;;;;;;;;;;5075550;28;20199;-71
2021/05/19 00:11:09;;;;;;;17.55;15.68;;;;;;;;;;5075571;28;20228;-71
2021/05/19 00:13:36;;;;;;;18.45;15.10;;;;;;;;;;5075709;28;20287;-71
2021/05/19 00:16:06;;;;;;;17.23;14.82;;;;;;;;;;5075336;28;20206;-71
2021/05/19 00:18:32;;;;;;;22.50;17.30;;;;;;;;;;5075430;28;20287;-71
2021/05/19 00:20:59;;;;;;;19.88;16.23;;;;;;;;;;5074420;28;20192;-71
2021/05/19 00:23:26;;;;;;;21.27;15.40;;;;;;;;;;5074224;28;20201;-71
2021/05/19 00:25:53;;;;;;;16.80;15.18;;;;;;;;;;5074370;28;20196;-71
2021/05/19 00:28:20;;;;;;;17.60;15.82;;;;;;;;;;5074268;28;20651;-71
2021/05/19 00:30:49;;;;;;;20.77;16.10;;;;;;;;;;5074412;28;20233;-71
2021/05/19 00:33:17;;;;;;;17.27;15.55;;;;;;;;;;5073998;28;20196;-70
2021/05/19 00:35:43;;;;;;;17.30;14.93;;;;;;;;;;5074289;28;20198;-70
2021/05/19 00:38:10;;;;;;;18.05;16.13;;;;;;;;;;5073935;28;20205;-71
2021/05/19 00:40:37;;;;;;;19.33;17.25;;;;;;;;;;5074158;28;20215;-72
2021/05/19 00:43:03;;;;;;;21.00;17.65;;;;;;;;;;5074307;28;20232;-72
2021/05/19 00:45:30;;;;;;;17.73;15.18;;;;;;;;;;5075046;28;20242;-72
2021/05/19 00:47:57;;;;;;;16.88;15.15;;;;;;;;;;5074013;28;20196;-72
2021/05/19 00:50:26;;;;;;;22.25;16.50;;;;;;;;;;5073912;28;20200;-71
2021/05/19 00:52:53;;;;;;;17.42;15.63;;;;;;;;;;5074053;28;20200;-72
2021/05/19 00:55:20;;;;;;;16.80;15.15;;;;;;;;;;5073997;28;20195;-72
2021/05/19 00:57:49;;;;;;;18.30;16.30;;;;;;;;;;5073839;28;20199;-72
2021/05/19 01:00:17;;;;;;;16.55;14.95;;;;;;;;;;5074196;28;20209;-72
2021/05/19 01:02:44;;;;;;;21.15;16.70;;;;;;;;;;5073773;28;20247;-73
2021/05/19 01:05:15;;;;;;;24.02;17.63;;;;;;;;;;5073384;28;20194;-72
2021/05/19 01:09:35;;;;;;;19.60;17.40;;;;;;;;;;5074208;28;20188;-71
2021/05/19 01:10:32;;;;;;;19.08;17.08;;;;;;;;;;5073285;28;20205;-71
2021/05/19 01:12:59;;;;;;;23.38;18.83;;;;;;;;;;5073717;28;20261;-71
2021/05/19 01:15:26;;;;;;;19.15;17.25;;;;;;;;;;5073281;28;20192;-70
2021/05/19 01:17:52;;;;;;;21.38;18.25;;;;;;;;;;5073683;28;20192;-71
2021/05/19 01:20:19;;;;;;;21.52;18.70;;;;;;;;;;5073766;28;20203;-71
2021/05/19 01:22:47;;;;;;;21.80;18.48;;;;;;;;;;5073647;28;20222;-70
2021/05/19 01:25:14;;;;;;;20.40;17.90;;;;;;;;;;5073367;28;20226;-70
2021/05/19 01:27:40;;;;;;;19.80;17.70;;;;;;;;;;5073397;28;20270;-71
2021/05/19 01:30:09;;;;;;;19.80;17.75;;;;;;;;;;5073008;28;20224;-70
2021/05/19 01:32:36;;;;;;;20.20;18.30;;;;;;;;;;5073315;28;20220;-71
2021/05/19 01:35:03;;;;;;;20.42;18.20;;;;;;;;;;5074100;28;20191;-70
2021/05/19 01:37:30;;;;;;;19.33;17.35;;;;;;;;;;5073252;28;20196;-70
2021/05/19 01:39:57;;;;;;;27.25;17.38;;;;;;;;;;5073297;28;20323;-71
2021/05/19 01:42:24;;;;;;;23.02;17.58;;;;;;;;;;5073111;28;20273;-70
2021/05/19 01:44:53;;;;;;;22.00;19.50;;;;;;;;;;5072831;28;20195;-70
2021/05/19 01:47:21;;;;;;;20.40;18.27;;;;;;;;;;5073077;28;20662;-71
2021/05/19 01:49:48;;;;;;;20.23;18.15;;;;;;;;;;5072954;28;20654;-71
2021/05/19 01:52:15;;;;;;;19.30;17.27;;;;;;;;;;5072473;28;20197;-70
2021/05/19 01:54:44;;;;;;;19.65;17.45;;;;;;;;;;5073099;28;20554;-70
2021/05/19 01:57:12;;;;;;;20.60;17.42;;;;;;;;;;5073173;28;20192;-71
2021/05/19 01:59:38;;;;;;;20.13;17.23;;;;;;;;;;5073296;28;20199;-71
2021/05/19 02:02:05;;;;;;;19.52;17.65;;;;;;;;;;5072923;28;20225;-71
2021/05/19 02:04:32;;;;;;;20.13;18.10;;;;;;;;;;5072598;28;20199;-70
2021/05/19 02:07:00;;;;;;;20.90;17.98;;;;;;;;;;5072555;28;20200;-71
2021/05/19 02:09:27;;;;;;;18.88;16.58;;;;;;;;;;5073602;28;20567;-71
2021/05/19 02:11:54;;;;;;;20.13;16.38;;;;;;;;;;5073210;28;20211;-72
2021/05/19 02:14:22;;;;;;;19.80;17.70;;;;;;;;;;5072891;28;20202;-72
2021/05/19 02:16:49;;;;;;;19.02;17.02;;;;;;;;;;5073480;28;20196;-72
2021/05/19 02:19:16;;;;;;;21.65;18.15;;;;;;;;;;5072777;28;20281;-72
2021/05/19 02:21:43;;;;;;;21.75;19.02;;;;;;;;;;5072331;28;20221;-73
2021/05/19 02:24:10;;;;;;;20.65;17.73;;;;;;;;;;5072594;28;20651;-72
2021/05/19 02:26:37;;;;;;;23.67;19.65;;;;;;;;;;5072488;28;20206;-72
2021/05/19 02:29:04;;;;;;;24.88;21.65;;;;;;;;;;5072697;28;20199;-72
2021/05/19 02:31:31;;;;;;;24.17;21.27;;;;;;;;;;5073093;28;20231;-73
2021/05/19 02:33:58;;;;;;;22.27;19.40;;;;;;;;;;5072320;28;20200;-72
2021/05/19 02:36:26;;;;;;;24.20;20.65;;;;;;;;;;5072884;28;20290;-72
2021/05/19 02:38:53;;;;;;;21.73;19.50;;;;;;;;;;5072388;28;20224;-71
2021/05/19 02:41:19;;;;;;;23.15;20.88;;;;;;;;;;5072277;28;20195;-72
2021/05/19 02:43:46;;;;;;;24.10;20.55;;;;;;;;;;5072387;28;20201;-71
2021/05/19 02:46:13;;;;;;;22.55;20.25;;;;;;;;;;5072312;28;20207;-72
2021/05/19 02:48:40;;;;;;;23.60;20.65;;;;;;;;;;5072401;28;20213;-71
2021/05/19 02:51:07;;;;;;;23.80;21.23;;;;;;;;;;5073032;28;20199;-72
2021/05/19 02:53:34;;;;;;;21.15;18.73;;;;;;;;;;5072730;28;20283;-72
2021/05/19 02:56:03;;;;;;;22.65;20.27;;;;;;;;;;5072277;28;20201;-72
2021/05/19 02:58:30;;;;;;;21.05;18.83;;;;;;;;;;5072127;28;20200;-72
2021/05/19 03:00:57;;;;;;;22.50;19.77;;;;;;;;;;5072515;28;20231;-72
2021/05/19 03:03:23;;;;;;;23.75;19.60;;;;;;;;;;5072881;28;20224;-71
2021/05/19 03:05:51;;;;;;;39.80;21.58;;;;;;;;;;5076378;28;20191;-71
2021/05/19 03:08:17;;;;;;;22.00;18.90;;;;;;;;;;5076000;28;20221;-71
2021/05/19 03:10:44;;;;;;;24.33;21.05;;;;;;;;;;5076236;28;20195;-70
2021/05/19 03:13:11;;;;;;;21.30;19.10;;;;;;;;;;5076557;28;20206;-71
2021/05/19 03:15:38;;;;;;;20.98;18.08;;;;;;;;;;5075529;28;20206;-70
2021/05/19 03:18:04;;;;;;;19.58;17.77;;;;;;;;;;5075471;28;20284;-70
2021/05/19 03:20:31;;;;;;;21.20;19.05;;;;;;;;;;5075742;28;20197;-71
2021/05/19 03:22:59;;;;;;;20.85;18.75;;;;;;;;;;5075602;28;20576;-71
2021/05/19 03:25:26;;;;;;;22.23;19.92;;;;;;;;;;5075549;28;20229;-71
2021/05/19 03:27:53;;;;;;;22.27;19.88;;;;;;;;;;5075346;28;20337;-71
2021/05/19 03:30:20;;;;;;;25.42;21.25;;;;;;;;;;5075991;28;20303;-71
2021/05/19 03:32:47;;;;;;;25.58;21.38;;;;;;;;;;5075216;28;20664;-71
2021/05/19 03:35:13;;;;;;;25.13;22.02;;;;;;;;;;5076147;28;20200;-71
2021/05/19 03:37:40;;;;;;;23.35;20.85;;;;;;;;;;5075379;28;20230;-71
2021/05/19 03:40:10;;;;;;;24.52;21.42;;;;;;;;;;5075477;28;20199;-71
2021/05/19 03:42:37;;;;;;;24.77;22.17;;;;;;;;;;5075328;28;20214;-72
2021/05/19 03:45:04;;;;;;;27.45;21.17;;;;;;;;;;5075369;28;20249;-72
2021/05/19 03:47:31;;;;;;;26.23;22.25;;;;;;;;;;5075206;28;20194;-72
2021/05/19 03:49:57;;;;;;;29.15;24.75;;;;;;;;;;5074832;28;20207;-72
2021/05/19 03:52:24;;;;;;;29.33;23.77;;;;;;;;;;5075201;28;20206;-72
2021/05/19 03:54:51;;;;;;;33.22;27.00;;;;;;;;;;5074795;28;20200;-72
2021/05/19 03:57:19;;;;;;;32.47;26.92;;;;;;;;;;5075128;28;20244;-73
2021/05/19 03:59:45;;;;;;;29.25;24.83;;;;;;;;;;5075202;28;20249;-71
2021/05/19 04:02:12;;;;;;;34.75;25.98;;;;;;;;;;5074471;28;20321;-71
2021/05/19 04:04:39;;;;;;;38.17;27.45;;;;;;;;;;5074731;28;20651;-72
2021/05/19 04:07:05;;;;;;;33.05;26.10;;;;;;;;;;5074958;28;20195;-72
2021/05/19 04:09:32;;;;;;;29.38;26.05;;;;;;;;;;5074496;28;20199;-71
2021/05/19 04:11:59;;;;;;;29.30;24.05;;;;;;;;;;5074499;28;20670;-71
2021/05/19 04:14:26;;;;;;;33.63;25.75;;;;;;;;;;5074932;28;20191;-71
2021/05/19 04:16:53;;;;;;;35.35;27.85;;;;;;;;;;5074976;28;20201;-71
2021/05/19 04:19:20;;;;;;;33.85;26.60;;;;;;;;;;5074838;28;20206;-72
2021/05/19 04:21:47;;;;;;;37.95;26.45;;;;;;;;;;5074921;28;20573;-71
2021/05/19 04:24:13;;;;;;;27.83;24.70;;;;;;;;;;5074657;28;20294;-71
2021/05/19 04:26:40;;;;;;;32.67;25.20;;;;;;;;;;5074895;28;20195;-72
2021/05/19 04:29:07;;;;;;;30.05;24.92;;;;;;;;;;5074784;28;20544;-71
2021/05/19 04:31:34;;;;;;;30.77;24.45;;;;;;;;;;5074542;28;20230;-72
2021/05/19 04:34:01;;;;;;;32.85;25.95;;;;;;;;;;5074729;28;20195;-71
2021/05/19 04:36:28;;;;;;;27.95;24.42;;;;;;;;;;5074946;28;20196;-73
2021/05/19 04:38:54;;;;;;;29.60;25.85;;;;;;;;;;5074677;28;20199;-71
2021/05/19 04:41:22;;;;;;;31.20;24.75;;;;;;;;;;5074830;28;20200;-71
2021/05/19 04:43:48;;;;;;;29.55;25.38;;;;;;;;;;5073997;28;20195;-71
2021/05/19 04:46:15;;;;;;;27.63;23.85;;;;;;;;;;5074615;28;20217;-73
2021/05/19 04:48:43;;;;;;;27.58;24.17;;;;;;;;;;5074014;28;20194;-71
2021/05/19 04:51:09;;;;;;;29.25;26.15;;;;;;;;;;5073849;28;20240;-71
2021/05/19 04:53:36;;;;;;;29.10;24.73;;;;;;;;;;5072729;28;20204;-70
2021/05/19 04:56:03;;;;;;;29.98;24.05;;;;;;;;;;5074216;28;20200;-70
2021/05/19 04:58:30;;;;;;;32.13;23.15;;;;;;;;;;5073897;28;20538;-71
2021/05/19 05:00:57;;;;;;;30.08;24.95;;;;;;;;;;5073541;28;20285;-70
2021/05/19 05:03:23;;;;;;;25.25;22.48;;;;;;;;;;5074564;28;20229;-70
2021/05/19 05:05:53;;;;;;;29.20;23.95;;;;;;;;;;5073935;28;20198;-72
2021/05/19 05:08:20;;;;;;;24.70;22.10;;;;;;;;;;5073729;28;20215;-72
2021/05/19 05:10:47;;;;;;;23.45;20.52;;;;;;;;;;5074904;28;20202;-72
2021/05/19 05:13:13;;;;;;;22.83;19.98;;;;;;;;;;5074411;28;20231;-72
2021/05/19 05:15:40;;;;;;;22.67;20.30;;;;;;;;;;5073835;28;20288;-72
2021/05/19 05:18:07;;;;;;;23.67;21.17;;;;;;;;;;5073924;28;20222;-71
2021/05/19 05:20:34;;;;;;;29.52;21.80;;;;;;;;;;5074288;28;20713;-71
2021/05/19 05:23:01;;;;;;;24.83;22.17;;;;;;;;;;5072966;28;20251;-71
2021/05/19 05:25:30;;;;;;;22.15;19.83;;;;;;;;;;5073078;28;20648;-71
2021/05/19 05:27:56;;;;;;;24.83;21.35;;;;;;;;;;5072133;28;20652;-73
2021/05/19 05:30:23;;;;;;;23.77;20.70;;;;;;;;;;5073767;28;20228;-72
2021/05/19 05:32:50;;;;;;;22.88;20.45;;;;;;;;;;5073281;28;20204;-71
2021/05/19 05:35:17;;;;;;;22.63;20.23;;;;;;;;;;5073318;28;20543;-72
2021/05/19 05:37:43;;;;;;;23.27;20.77;;;;;;;;;;5073231;28;20719;-71
2021/05/19 05:40:11;;;;;;;23.55;20.02;;;;;;;;;;5073446;28;20291;-71
2021/05/19 05:42:39;;;;;;;21.50;19.30;;;;;;;;;;5072777;28;20220;-71
2021/05/19 05:45:06;;;;;;;20.38;18.33;;;;;;;;;;5073066;28;20192;-71
2021/05/19 05:47:33;;;;;;;21.55;19.27;;;;;;;;;;5073583;28;20196;-71
2021/05/19 05:50:02;;;;;;;22.77;18.92;;;;;;;;;;5073113;28;20298;-71
2021/05/19 05:52:29;;;;;;;20.38;18.27;;;;;;;;;;5072921;28;20205;-74
2021/05/19 05:54:56;;;;;;;20.63;18.33;;;;;;;;;;5072990;28;20198;-75
2021/05/19 05:57:24;;;;;;;20.65;18.50;;;;;;;;;;5073155;28;20557;-73
2021/05/19 05:59:51;;;;;;;19.60;17.53;;;;;;;;;;5073324;28;20280;-74
2021/05/19 06:02:18;;;;;;;18.85;16.85;;;;;;;;;;5072630;28;20565;-74
2021/05/19 06:04:45;;;;;;;18.67;16.73;;;;;;;;;;5072937;28;20667;-71
2021/05/19 06:07:12;;;;;;;20.90;18.80;;;;;;;;;;5073128;28;20435;-71
2021/05/19 06:09:38;;;;;;;19.75;17.65;;;;;;;;;;5073444;28;20222;-72
2021/05/19 06:12:05;;;;;;;21.63;16.85;;;;;;;;;;5072650;28;20233;-71
2021/05/19 06:14:33;;;;;;;20.75;18.45;;;;;;;;;;5072887;28;20537;-71
2021/05/19 06:17:02;;;;;;;23.20;16.98;;;;;;;;;;5072924;28;20616;-71
2021/05/19 06:19:29;;;;;;;237.13;124.90;;;;;;;;;;5072547;28;20200;-72
2021/05/19 06:21:56;;;;;;;22.90;19.13;;;;;;;;;;5072640;28;20227;-71
2021/05/19 06:24:22;;;;;;;19.20;14.93;;;;;;;;;;5072195;28;20934;-71
2021/05/19 06:26:49;;;;;;;17.60;15.38;;;;;;;;;;5072858;28;20443;-71
2021/05/19 06:29:16;;;;;;;16.92;15.23;;;;;;;;;;5072873;28;20193;-70
2021/05/19 06:31:43;;;;;;;21.10;15.47;;;;;;;;;;5072964;28;20229;-70
2021/05/19 06:34:10;;;;;;;16.42;14.07;;;;;;;;;;5072566;28;20935;-70
2021/05/19 06:36:41;;;;;;;17.30;15.50;;;;;;;;;;5072186;28;20198;-70
2021/05/19 06:39:08;;;;;;;15.50;13.83;;;;;;;;;;5074373;28;20792;-70
2021/05/19 06:41:34;;;;;;;16.13;14.27;;;;;;;;;;5076272;28;20443;-70
2021/05/19 06:44:01;;;;;;;14.93;13.43;;;;;;;;;;5076592;28;20284;-71
2021/05/19 06:46:28;;;;;;;16.98;15.35;;;;;;;;;;5076314;28;20447;-70
2021/05/19 06:49:02;;;;;;;14.53;12.90;;;;;;;;;;5075914;28;20236;-70
2021/05/19 06:51:29;;;;;;;14.40;12.90;;;;;;;;;;5076557;28;20427;-70
2021/05/19 06:53:55;;;;;;;16.90;15.10;;;;;;;;;;5075944;28;20451;-70
2021/05/19 06:56:23;;;;;;;18.50;14.67;;;;;;;;;;5076064;28;20493;-70
2021/05/19 06:58:49;;;;;;;16.40;14.70;;;;;;;;;;5075706;28;20440;-70
2021/05/19 07:01:16;;;;;;;17.47;15.53;;;;;;;;;;5075837;28;20938;-70
2021/05/19 07:03:43;;;;;;;16.83;14.97;;;;;;;;;;5075942;28;20483;-70
2021/05/19 07:06:11;;;;;;;14.10;12.57;;;;;;;;;;5076109;28;20519;-70
2021/05/19 07:08:37;;;;;;;16.00;14.40;;;;;;;;;;5075722;28;20799;-70
2021/05/19 07:11:04;;;;;;;17.20;14.27;;;;;;;;;;5075801;28;20448;-70
2021/05/19 07:13:31;;;;;;;15.57;13.93;;;;;;;;;;5075801;28;20841;-70
2021/05/19 07:15:58;;;;;;;19.70;13.80;;;;;;;;;;5075794;28;20563;-70
2021/05/19 07:18:25;;;;;;;15.93;12.80;;;;;;;;;;5075550;28;20449;-70
2021/05/19 07:20:51;;;;;;;15.27;11.10;;;;;;;;;;5075423;28;20439;-70
2021/05/19 07:23:19;;;;;;;14.43;11.70;;;;;;;;;;5075363;28;20482;-71
2021/05/19 07:25:46;;;;;;;15.75;12.43;;;;;;;;;;5075487;28;20439;-70
2021/05/19 07:28:13;;;;;;;15.53;13.07;;;;;;;;;;5075071;28;20204;-70
2021/05/19 07:30:42;;;;;;;16.73;11.83;;;;;;;;;;5075419;28;20598;-70
2021/05/19 07:33:10;;;;;;;12.73;10.77;;;;;;;;;;5075406;28;20892;-70
2021/05/19 07:35:37;;;;;;;12.77;10.90;;;;;;;;;;5075318;28;20927;-70
2021/05/19 07:38:03;;;;;;;13.93;11.93;;;;;;;;;;5075304;28;20528;-70
2021/05/19 07:40:31;;;;;;;11.90;10.17;;;;;;;;;;5075066;28;20984;-70
2021/05/19 07:42:58;;;;;;;14.87;11.00;;;;;;;;;;5074913;28;20946;-70
2021/05/19 07:45:25;;;;;;;13.83;12.17;;;;;;;;;;5075291;28;20484;-70
2021/05/19 07:47:51;;;;;;;15.37;11.70;;;;;;;;;;5075886;28;20443;-70
2021/05/19 07:50:18;;;;;;;13.27;10.90;;;;;;;;;;5074001;28;20527;-70
2021/05/19 07:52:45;;;;;;;11.37;10.20;;;;;;;;;;5074697;28;20536;-70
2021/05/19 07:55:19;;;;;;;13.53;12.10;;;;;;;;;;5075593;28;20617;-70
2021/05/19 07:57:50;;;;;;;16.60;12.13;;;;;;;;;;5074587;28;20424;-85
2021/05/19 08:00:21;;;;;;;17.93;10.93;;;;;;;;;;5075376;28;21014;-70
2021/05/19 08:02:48;;;;;;;12.13;10.87;;;;;;;;;;5074756;28;20535;-72
2021/05/19 08:05:15;;;;;;;13.97;10.60;;;;;;;;;;5074755;28;20444;-70
2021/05/19 08:07:42;;;;;;;12.43;10.83;;;;;;;;;;5074357;28;21004;-70
2021/05/19 08:10:09;;;;;;;16.30;10.90;;;;;;;;;;5074467;28;20502;-70
2021/05/19 08:12:35;;;;;;;17.37;10.40;;;;;;;;;;5074250;28;21010;-70
2021/05/19 08:15:03;;;;;;;12.63;10.63;;;;;;;;;;5074258;28;20445;-70
2021/05/19 08:17:30;;;;;;;15.17;11.33;;;;;;;;;;5074352;28;20880;-70
2021/05/19 08:19:57;;;;;;;14.67;12.47;;;;;;;;;;5074457;28;20450;-70
2021/05/19 08:22:23;;;;;;;17.40;11.00;;;;;;;;;;5073975;28;20480;-70
2021/05/19 08:24:50;;;;;;;15.73;11.97;;;;;;;;;;5074346;28;20446;-71
2021/05/19 08:27:17;;;;;;;20.20;13.00;;;;;;;;;;5074394;28;20741;-70
2021/05/19 08:29:45;;;;;;;20.43;13.07;;;;;;;;;;5074259;28;20486;-70
2021/05/19 08:32:13;;;;;;;12.10;11.00;;;;;;;;;;5074565;28;20429;-70
2021/05/19 08:34:40;;;;;;;18.07;14.90;;;;;;;;;;5073997;28;20451;-70
2021/05/19 08:37:07;;;;;;;16.27;14.53;;;;;;;;;;5074371;28;20456;-68
2021/05/19 08:39:34;;;;;;;17.30;15.33;;;;;;;;;;5074063;28;20436;-70
2021/05/19 08:42:01;;;;;;;21.90;15.40;;;;;;;;;;5074133;28;20451;-70
2021/05/19 08:44:28;;;;;;;16.20;14.70;;;;;;;;;;5073954;28;20524;-70
2021/05/19 08:46:56;;;;;;;18.50;16.07;;;;;;;;;;5073572;28;20451;-69
2021/05/19 08:49:25;;;;;;;18.10;16.10;;;;;;;;;;5074146;28;20451;-73
2021/05/19 08:51:52;;;;;;;17.63;14.30;;;;;;;;;;5073684;28;20769;-70
2021/05/19 08:54:20;;;;;;;17.27;13.57;;;;;;;;;;5073443;28;20516;-73
2021/05/19 08:56:47;;;;;;;20.50;13.60;;;;;;;;;;5073448;28;20466;-73
2021/05/19 08:59:14;;;;;;;21.63;14.00;;;;;;;;;;5073255;28;20462;-73
2021/05/19 09:01:42;;;;;;;18.87;13.90;;;;;;;;;;5073388;28;20527;-76
2021/05/19 09:04:14;;;;;;;16.70;13.37;;;;;;;;;;5073753;28;20791;-75
2021/05/19 09:06:42;;;;;;;14.77;13.17;;;;;;;;;;5073390;28;20456;-74
2021/05/19 09:09:25;;;;;;;14.00;12.67;;;;;;;;;;5073144;28;20437;-77
2021/05/19 09:11:55;;;;;;;14.80;10.57;;;;;;;;;;5073492;28;20473;-75
2021/05/19 09:14:22;;;;;;;15.83;12.30;;;;;;;;;;5073401;28;20531;-73
2021/05/19 09:16:49;;;;;;;15.20;11.37;;;;;;;;;;5073498;28;20440;-75
2021/05/19 09:19:16;;;;;;;14.27;10.80;;;;;;;;;;5073648;28;20740;-74
2021/05/19 09:21:44;;;;;;;12.63;11.00;;;;;;;;;;5073477;28;20438;-74
2021/05/19 09:24:13;;;;;;;15.70;12.60;;;;;;;;;;5072818;28;20497;-75
2021/05/19 09:26:52;;;;;;;17.27;12.13;;;;;;;;;;5073375;28;20875;-75
2021/05/19 09:29:20;;;;;;;18.10;14.77;;;;;;;;;;5073476;28;20436;-74
2021/05/19 09:31:53;;;;;;;16.03;14.30;;;;;;;;;;5073695;28;20800;-75
2021/05/19 09:34:27;;;;;;;15.37;13.63;;;;;;;;;;5072864;28;20448;-74
2021/05/19 09:36:55;;;;;;;16.23;14.60;;;;;;;;;;5073017;28;20445;-74
2021/05/19 09:39:21;;;;;;;18.80;15.70;;;;;;;;;;5073437;28;20443;-75
2021/05/19 09:41:55;;;;;;;21.60;17.90;;;;;;;;;;5072706;28;20444;-75
2021/05/19 09:44:25;;;;;;;19.77;17.00;;;;;;;;;;5073135;28;20428;-74
2021/05/19 09:46:52;;;;;;;22.63;18.33;;;;;;;;;;5072746;28;20442;-74
2021/05/19 09:49:19;;;;;;;17.30;15.47;;;;;;;;;;5072695;28;20533;-76
2021/05/19 09:51:48;;;;;;;25.43;18.57;;;;;;;;;;5073192;28;20527;-77
2021/05/19 09:54:25;;;;;;;18.43;15.77;;;;;;;;;;5072940;28;20719;-76
2021/05/19 09:56:56;;;;;;;19.00;16.50;;;;;;;;;;5072929;28;20891;-76
2021/05/19 09:59:23;;;;;;;16.73;14.10;;;;;;;;;;5073215;28;20531;-78
2021/05/19 10:01:50;;;;;;;16.50;14.73;;;;;;;;;;5072468;28;20473;-76
2021/05/19 10:04:18;;;;;;;16.93;14.73;;;;;;;;;;5072538;28;20484;-77
2021/05/19 10:06:46;;;;;;;17.77;16.00;;;;;;;;;;5073030;28;20533;-76
2021/05/19 10:09:13;;;;;;;23.17;15.97;;;;;;;;;;5072919;28;20443;-78
2021/05/19 10:11:42;;;;;;;17.43;14.87;;;;;;;;;;5072709;28;20441;-78
2021/05/19 10:14:11;;;;;;;17.73;15.83;;;;;;;;;;5075214;28;20469;-78
2021/05/19 10:16:38;;;;;;;20.00;16.37;;;;;;;;;;5076871;28;20477;-77
2021/05/19 10:19:06;;;;;;;18.23;16.33;;;;;;;;;;5076528;28;20536;-77
2021/05/19 10:21:34;;;;;;;20.20;16.73;;;;;;;;;;5076988;28;20447;-77
2021/05/19 10:24:05;;;;;;;21.57;16.07;;;;;;;;;;5076479;28;21063;-77
2021/05/19 10:26:32;;;;;;;20.13;15.13;;;;;;;;;;5077295;28;20425;-71
2021/05/19 10:29:00;;;;;;;22.93;16.50;;;;;;;;;;5076853;28;20480;-71
2021/05/19 10:31:31;;;;;;;20.53;15.93;;;;;;;;;;5076961;28;20529;-73
2021/05/19 10:33:58;;;;;;;17.20;13.40;;;;;;;;;;5077059;28;20507;-72
2021/05/19 10:36:46;;;;;;;14.40;12.90;;;;;;;;;;5076486;28;20519;-71
2021/05/19 10:39:23;;;;;;;17.70;13.20;;;;;;;;;;5076214;28;20500;-71
2021/05/19 10:41:50;;;;;;;14.67;12.77;;;;;;;;;;5076871;28;20449;-71
2021/05/19 10:44:18;;;;;;;17.10;12.93;;;;;;;;;;5076572;28;20894;-70
2021/05/19 10:47:13;;;;;;;11.73;10.50;;;;;;;;;;5076192;28;20442;-70
2021/05/19 10:50:01;;;;;;;16.70;14.00;;;;;;;;;;5071667;28;20463;-71
2021/05/19 10:52:36;;;;;;;14.37;12.23;;;;;;;;;;5076410;28;20517;-71
2021/05/19 10:57:50;;;;;;;13.47;11.07;;;;;;;;;;5076010;28;20397;-71
2021/05/19 11:00:21;;;;;;;12.13;11.03;;;;;;;;;;5075786;28;20799;-71
2021/05/19 11:03:06;;;;;;;14.20;11.43;;;;;;;;;;5075991;28;20469;-71
2021/05/19 11:05:34;;;;;;;12.10;10.83;;;;;;;;;;5075001;28;20456;-70
2021/05/19 11:08:19;;;;;;;14.07;12.67;;;;;;;;;;5075564;28;20444;-70
2021/05/19 11:10:47;;;;;;;18.90;11.90;;;;;;;;;;5069189;28;20535;-70
2021/05/19 11:13:14;;;;;;;13.90;12.70;;;;;;;;;;5075665;28;20445;-70
2021/05/19 11:16:11;;;;;;;16.90;12.50;;;;;;;;;;5075672;28;20766;-69
2021/05/19 11:21:28;;;;;;;11.97;10.77;;;;;;;;;;5071981;28;20422;-70
2021/05/19 11:24:06;;;;;;;16.53;10.10;;;;;;;;;;5075173;28;20520;-70
2021/05/19 11:26:40;;;;;;;12.57;11.23;;;;;;;;;;5075522;28;20510;-69
2021/05/19 11:29:07;;;;;;;13.23;11.90;;;;;;;;;;5075319;28;20903;-70
2021/05/19 11:31:39;;;;;;;14.60;12.10;;;;;;;;;;5075499;28;21037;-71
2021/05/19 11:34:06;;;;;;;16.53;11.90;;;;;;;;;;5075485;28;20441;-71
2021/05/19 11:36:34;;;;;;;11.90;10.70;;;;;;;;;;5076015;28;20509;-70
2021/05/19 11:39:04;;;;;;;13.03;9.20;;;;;;;;;;5075195;28;20441;-70
2021/05/19 11:41:31;;;;;;;11.37;9.60;;;;;;;;;;5075040;28;20942;-70
2021/05/19 11:43:57;;;;;;;10.50;9.37;;;;;;;;;;5075887;28;20475;-70
2021/05/19 11:46:24;;;;;;;11.37;10.00;;;;;;;;;;5075212;28;20533;-70
2021/05/19 11:48:52;;;;;;;9.60;8.70;;;;;;;;;;5074894;28;20966;-70
2021/05/19 11:51:20;;;;;;;11.50;8.13;;;;;;;;;;5075163;28;20523;-70
2021/05/19 11:53:56;;;;;;;7.07;6.50;;;;;;;;;;5075062;28;20468;-70
2021/05/19 11:56:23;;;;;;;7.47;6.33;;;;;;;;;;5074681;28;20530;-70
2021/05/19 11:58:50;;;;;;;12.53;6.10;;;;;;;;;;5075204;28;20556;-70
2021/05/19 12:01:18;;;;;;;7.97;6.10;;;;;;;;;;5075486;28;20506;-70
2021/05/19 12:03:47;;;;;;;10.70;7.30;;;;;;;;;;5074245;28;20492;-70
2021/05/19 12:06:15;;;;;;;11.03;10.03;;;;;;;;;;5074560;28;20498;-71
2021/05/19 12:08:44;;;;;;;10.40;8.23;;;;;;;;;;5074574;28;20445;-71
2021/05/19 12:11:11;;;;;;;14.17;10.37;;;;;;;;;;5075135;28;20513;-70
2021/05/19 12:13:39;;;;;;;10.50;9.50;;;;;;;;;;5075706;28;20449;-70
2021/05/19 12:16:06;;;;;;;11.50;10.30;;;;;;;;;;5074875;28;20440;-71
2021/05/19 12:18:39;;;;;;;12.43;11.20;;;;;;;;;;5075072;28;20524;-70
2021/05/19 12:21:09;;;;;;;13.33;10.10;;;;;;;;;;5074723;28;20563;-68
2021/05/19 12:23:37;;;;;;;11.53;10.30;;;;;;;;;;5074378;28;20922;-69
2021/05/19 12:26:04;;;;;;;11.93;10.83;;;;;;;;;;5074794;28;20441;-70
2021/05/19 12:28:30;;;;;;;12.87;11.17;;;;;;;;;;5074556;28;20447;-70
2021/05/19 12:30:59;;;;;;;13.07;11.60;;;;;;;;;;5075241;28;20475;-70
2021/05/19 12:33:27;;;;;;;12.50;10.70;;;;;;;;;;5074274;28;20443;-70
2021/05/19 12:35:53;;;;;;;12.40;10.83;;;;;;;;;;5073644;28;20873;-71
2021/05/19 12:38:25;;;;;;;12.60;10.80;;;;;;;;;;5074486;28;20434;-70
2021/05/19 12:40:54;;;;;;;12.37;9.67;;;;;;;;;;5074079;28;20846;-70
2021/05/19 12:43:22;;;;;;;12.70;7.47;;;;;;;;;;5074007;28;20485;-70
2021/05/19 12:45:51;;;;;;;7.17;6.57;;;;;;;;;;5074003;28;20519;-71
2021/05/19 12:48:19;;;;;;;5.63;5.03;;;;;;;;;;5073681;28;20440;-71
2021/05/19 12:50:46;;;;;;;7.43;5.73;;;;;;;;;;5073648;28;20968;-71
2021/05/19 12:53:28;;;;;;;6.83;5.03;;;;;;;;;;5073880;28;20545;-70
2021/05/19 12:56:00;;;;;;;4.80;4.03;;;;;;;;;;5074107;28;20871;-70
2021/05/19 12:58:29;;;;;;;6.77;3.80;;;;;;;;;;5073861;28;20619;-69
2021/05/19 13:01:01;;;;;;;12.70;3.80;;;;;;;;;;5073767;28;20452;-69
2021/05/19 13:03:34;;;;;;;5.53;3.47;;;;;;;;;;5073953;28;20507;-69
2021/05/19 13:06:01;;;;;;;7.53;3.10;;;;;;;;;;5073671;28;20431;-69
2021/05/19 13:08:28;;;;;;;3.43;3.07;;;;;;;;;;5073069;28;20454;-69
2021/05/19 13:10:55;;;;;;;6.93;3.60;;;;;;;;;;5073319;28;20996;-71
2021/05/19 13:13:27;;;;;;;5.70;3.13;;;;;;;;;;5073194;28;20456;-70
2021/05/19 13:15:57;;;;;;;6.27;2.33;;;;;;;;;;5073852;28;20433;-71
2021/05/19 13:18:28;;;;;;;3.73;2.90;;;;;;;;;;5074050;28;20929;-71
2021/05/19 13:21:00;;;;;;;5.03;2.77;;;;;;;;;;5073577;28;20442;-72
2021/05/19 13:23:38;;;;;;;6.70;3.57;;;;;;;;;;5073073;28;20484;-71
2021/05/19 13:26:06;;;;;;;4.00;3.40;;;;;;;;;;5073680;28;20425;-71
2021/05/19 13:28:37;;;;;;;5.40;3.83;;;;;;;;;;5073687;28;20445;-71
2021/05/19 13:31:04;;;;;;;7.53;3.70;;;;;;;;;;5073206;28;20480;-71
2021/05/19 13:33:38;;;;;;;5.17;3.40;;;;;;;;;;5073619;28;20475;-71
2021/05/19 13:36:26;;;;;;;7.03;3.30;;;;;;;;;;5073578;28;20429;-71
2021/05/19 13:38:53;;;;;;;5.93;3.13;;;;;;;;;;5073353;28;20859;-71
2021/05/19 13:41:20;;;;;;;3.20;2.80;;;;;;;;;;5072852;28;20490;-71
2021/05/19 13:43:47;;;;;;;3.40;2.93;;;;;;;;;;5072943;28;20479;-71
2021/05/19 13:46:14;;;;;;;5.93;3.67;;;;;;;;;;5072986;28;20436;-70
2021/05/19 13:48:41;;;;;;;6.80;3.70;;;;;;;;;;5071856;28;20998;-69
2021/05/19 13:51:08;;;;;;;4.27;3.27;;;;;;;;;;5073062;28;20441;-70
2021/05/19 13:53:35;;;;;;;5.50;3.40;;;;;;;;;;5072986;28;20952;-70
2021/05/19 13:56:03;;;;;;;4.90;4.00;;;;;;;;;;5072539;28;21008;-70
2021/05/19 13:58:32;;;;;;;4.47;4.07;;;;;;;;;;5073055;28;20537;-71
2021/05/19 14:01:00;;;;;;;4.30;4.00;;;;;;;;;;5073536;28;20475;-72
2021/05/19 14:03:27;;;;;;;8.43;4.30;;;;;;;;;;5072998;28;20468;-71
2021/05/19 14:05:54;;;;;;;6.07;2.93;;;;;;;;;;5072741;28;20549;-71
2021/05/19 14:08:21;;;;;;;5.93;3.93;;;;;;;;;;5063834;28;20456;-71
2021/05/19 14:10:56;;;;;;;5.03;4.53;;;;;;;;;;5072917;28;20527;-72
2021/05/19 14:13:26;;;;;;;6.23;4.60;;;;;;;;;;5072632;28;20938;-72
2021/05/19 14:15:59;;;;;;;5.50;4.43;;;;;;;;;;5072983;28;20437;-73
2021/05/19 14:29:36;;;;;;;5.10;4.70;;;;;;;;;;5024936;28;20570;-71
2021/05/19 14:32:03;;;;;;;4.57;3.90;;;;;;;;;;5072791;28;20442;-72
2021/05/19 14:34:31;;;;;;;5.20;4.70;;;;;;;;;;5072772;28;20444;-71
2021/05/19 14:54:05;;;;;;;4.93;4.43;;;;;;;;;;5072459;28;20898;-71
2021/05/19 14:59:25;;;;;;;8.07;4.70;;;;;;;;;;5072742;28;20436;-71
2021/05/19 15:01:52;;;;;;;5.03;4.63;;;;;;;;;;5075912;28;20432;-71
2021/05/19 15:04:19;;;;;;;4.33;3.93;;;;;;;;;;5076437;28;20570;-71